Time;durP1;ratioP1;P1;durP2;ratioP2;P2;SDS_P1;SDS_P2;PMS_P1;PMS_P2;Temp;Humidity;BMP_temperature;BMP_pressure;BME280_temperature;BME280_humidity;BME280_pressure;Samples;Min_cycle;Max_cycle;Signal;HPM_P1;HPM_P2
2023/10/17 00:01:46;;;;;;;5.10;4.60;;;;;;;;;;5058379;28;20201;-62
2023/10/17 00:04:25;;;;;;;4.47;4.15;;;;;;;;;;5058467;28;20587;-63
2023/10/17 00:06:54;;;;;;;4.90;4.50;;;;;;;;;;5058142;28;20248;-64
2023/10/17 00:09:24;;;;;;;4.35;3.95;;;;;;;;;;5058600;28;20204;-63
2023/10/17 00:12:03;;;;;;;4.43;4.03;;;;;;;;;;5058460;28;20236;-62
2023/10/17 00:14:34;;;;;;;4.25;3.80;;;;;;;;;;5058043;28;20239;-62
2023/10/17 00:17:04;;;;;;;4.40;4.00;;;;;;;;;;5057990;28;20232;-63
2023/10/17 00:19:32;;;;;;;4.32;3.92;;;;;;;;;;5057923;28;20226;-63
2023/10/17 00:22:02;;;;;;;4.28;3.88;;;;;;;;;;5058315;28;20213;-63
2023/10/17 00:24:29;;;;;;;4.13;3.72;;;;;;;;;;5058778;28;20677;-62
2023/10/17 00:26:57;;;;;;;3.78;3.47;;;;;;;;;;5058172;28;20205;-62
2023/10/17 00:29:24;;;;;;;4.07;3.65;;;;;;;;;;5057999;28;20204;-62
2023/10/17 00:31:52;;;;;;;3.58;3.28;;;;;;;;;;5058438;28;20555;-62
2023/10/17 00:34:24;;;;;;;3.55;3.25;;;;;;;;;;5058343;28;20212;-62
2023/10/17 00:36:59;;;;;;;3.60;3.30;;;;;;;;;;5057861;28;20204;-62
2023/10/17 00:39:30;;;;;;;3.70;3.40;;;;;;;;;;5057871;28;20218;-62
2023/10/17 00:42:16;;;;;;;3.80;3.40;;;;;;;;;;5058049;28;20602;-63
2023/10/17 00:44:47;;;;;;;4.97;3.75;;;;;;;;;;5057981;28;20215;-62
2023/10/17 00:47:18;;;;;;;3.42;3.00;;;;;;;;;;5058082;28;20204;-62
2023/10/17 00:49:49;;;;;;;3.63;2.97;;;;;;;;;;5057902;28;20205;-64
2023/10/17 00:52:22;;;;;;;3.22;2.97;;;;;;;;;;5057855;28;20201;-63
2023/10/17 00:54:50;;;;;;;3.60;3.30;;;;;;;;;;5057937;28;20268;-63
2023/10/17 00:57:19;;;;;;;3.58;3.08;;;;;;;;;;5057810;28;20212;-62
2023/10/17 00:59:50;;;;;;;2.85;2.65;;;;;;;;;;5057595;28;20205;-64
2023/10/17 01:02:21;;;;;;;3.30;3.00;;;;;;;;;;5056999;28;20287;-62
2023/10/17 01:04:51;;;;;;;3.17;2.88;;;;;;;;;;5058044;28;20205;-62
2023/10/17 01:07:26;;;;;;;3.30;3.00;;;;;;;;;;5057750;28;20209;-62
2023/10/17 01:10:00;;;;;;;2.92;2.72;;;;;;;;;;5057644;28;20212;-63
2023/10/17 01:12:28;;;;;;;2.63;2.42;;;;;;;;;;5057812;28;20205;-62
2023/10/17 01:14:56;;;;;;;2.80;2.60;;;;;;;;;;5057319;28;20626;-63
2023/10/17 01:17:24;;;;;;;2.90;2.70;;;;;;;;;;5057575;28;20213;-62
2023/10/17 01:19:57;;;;;;;2.75;2.55;;;;;;;;;;5057468;28;20231;-63
2023/10/17 01:22:25;;;;;;;2.90;2.60;;;;;;;;;;5057495;28;20205;-64
2023/10/17 01:24:56;;;;;;;2.50;2.30;;;;;;;;;;5057296;28;20208;-64
2023/10/17 01:27:24;;;;;;;2.63;2.42;;;;;;;;;;5057517;28;20205;-64
2023/10/17 01:29:52;;;;;;;3.03;2.55;;;;;;;;;;5057176;28;20256;-63
2023/10/17 01:32:21;;;;;;;2.88;2.63;;;;;;;;;;5057285;28;20501;-63
2023/10/17 01:34:49;;;;;;;2.60;2.40;;;;;;;;;;5057735;28;20216;-63
2023/10/17 01:37:16;;;;;;;2.63;2.42;;;;;;;;;;5057182;28;20227;-63
2023/10/17 01:39:44;;;;;;;2.50;2.30;;;;;;;;;;5057302;28;20205;-63
2023/10/17 01:42:13;;;;;;;2.60;2.40;;;;;;;;;;5057471;28;20580;-63
2023/10/17 01:44:40;;;;;;;3.13;2.50;;;;;;;;;;5057241;28;20255;-63
2023/10/17 01:47:08;;;;;;;2.47;2.28;;;;;;;;;;5056846;28;20214;-64
2023/10/17 01:49:37;;;;;;;2.50;2.30;;;;;;;;;;5057267;28;20296;-63
2023/10/17 01:52:06;;;;;;;2.58;2.38;;;;;;;;;;5057012;28;20264;-64
2023/10/17 01:54:36;;;;;;;2.33;2.10;;;;;;;;;;5057120;28;20233;-64
2023/10/17 01:57:07;;;;;;;2.20;2.00;;;;;;;;;;5056774;28;20213;-63
2023/10/17 01:59:36;;;;;;;2.30;2.10;;;;;;;;;;5056475;28;20681;-64
2023/10/17 02:02:04;;;;;;;1.98;1.88;;;;;;;;;;5057217;28;20605;-62
2023/10/17 02:04:34;;;;;;;2.00;1.90;;;;;;;;;;5056947;28;20220;-63
2023/10/17 02:07:03;;;;;;;2.40;2.20;;;;;;;;;;5056978;28;20215;-64
2023/10/17 02:12:24;;;;;;;2.20;2.10;;;;;;;;;;5136292;27;20630;-64
2023/10/17 02:14:51;;;;;;;2.03;1.92;;;;;;;;;;5136251;27;20776;-64
2023/10/17 02:17:19;;;;;;;2.00;1.80;;;;;;;;;;5136309;27;20202;-63
2023/10/17 02:19:47;;;;;;;2.30;2.10;;;;;;;;;;5135775;27;20230;-64
2023/10/17 02:22:16;;;;;;;1.80;1.70;;;;;;;;;;5135349;27;20233;-64
2023/10/17 02:24:44;;;;;;;2.10;2.00;;;;;;;;;;5135787;27;20229;-64
2023/10/17 02:27:13;;;;;;;2.15;1.98;;;;;;;;;;5136153;27;20651;-63
2023/10/17 02:29:44;;;;;;;2.00;1.90;;;;;;;;;;5135718;27;20209;-64
2023/10/17 02:32:12;;;;;;;1.73;1.63;;;;;;;;;;5135449;27;20257;-63
2023/10/17 02:34:40;;;;;;;1.98;1.88;;;;;;;;;;5135939;27;20202;-64
2023/10/17 02:37:11;;;;;;;2.00;1.80;;;;;;;;;;5135345;27;20194;-65
2023/10/17 02:39:38;;;;;;;1.83;1.73;;;;;;;;;;5135353;27;20213;-64
2023/10/17 02:42:09;;;;;;;1.80;1.70;;;;;;;;;;5135279;27;20592;-64
2023/10/17 02:44:39;;;;;;;1.88;1.77;;;;;;;;;;5135793;27;20499;-65
2023/10/17 02:47:12;;;;;;;1.98;1.88;;;;;;;;;;5135281;27;20202;-64
2023/10/17 02:49:40;;;;;;;1.77;1.67;;;;;;;;;;5135188;27;20202;-64
2023/10/17 02:52:07;;;;;;;1.65;1.55;;;;;;;;;;5135002;27;20248;-64
2023/10/17 02:54:55;;;;;;;1.80;1.70;;;;;;;;;;5135347;27;20407;-64
2023/10/17 02:57:23;;;;;;;1.80;1.70;;;;;;;;;;5135347;27;20206;-64
2023/10/17 02:59:56;;;;;;;1.67;1.58;;;;;;;;;;5135662;27;20234;-63
2023/10/17 03:02:36;;;;;;;1.65;1.55;;;;;;;;;;5134982;27;20553;-63
2023/10/17 03:05:11;;;;;;;1.80;1.70;;;;;;;;;;5134532;27;20769;-64
2023/10/17 03:07:39;;;;;;;1.60;1.50;;;;;;;;;;5135090;27;20202;-63
2023/10/17 03:10:06;;;;;;;1.83;1.73;;;;;;;;;;5134815;27;20210;-63
2023/10/17 03:12:50;;;;;;;1.73;1.63;;;;;;;;;;5134827;27;20226;-63
2023/10/17 03:15:22;;;;;;;1.77;1.60;;;;;;;;;;5134531;27;20203;-63
2023/10/17 03:17:53;;;;;;;1.70;1.60;;;;;;;;;;5134664;27;20297;-63
2023/10/17 03:20:22;;;;;;;2.05;1.60;;;;;;;;;;5134960;27;20656;-62
2023/10/17 03:22:51;;;;;;;1.80;1.70;;;;;;;;;;5126396;27;20257;-64
2023/10/17 03:25:20;;;;;;;1.50;1.40;;;;;;;;;;5121216;28;20226;-63
2023/10/17 03:27:55;;;;;;;1.73;1.63;;;;;;;;;;5121535;28;20213;-63
2023/10/17 03:30:21;;;;;;;1.45;1.35;;;;;;;;;;5120958;28;20213;-63
2023/10/17 03:33:05;;;;;;;1.60;1.50;;;;;;;;;;5121082;28;20202;-64
2023/10/17 03:35:36;;;;;;;2.03;1.50;;;;;;;;;;5121232;28;20307;-63
2023/10/17 03:38:04;;;;;;;1.80;1.70;;;;;;;;;;5120470;28;20209;-63
2023/10/17 03:40:36;;;;;;;1.60;1.50;;;;;;;;;;5120375;28;20210;-63
2023/10/17 03:43:11;;;;;;;1.88;1.77;;;;;;;;;;5120778;28;20303;-63
2023/10/17 03:45:51;;;;;;;1.52;1.42;;;;;;;;;;5120693;28;20213;-63
2023/10/17 03:48:20;;;;;;;1.52;1.42;;;;;;;;;;5120661;28;20202;-63
2023/10/17 03:51:08;;;;;;;1.52;1.42;;;;;;;;;;5120189;28;20246;-64
2023/10/17 03:53:42;;;;;;;1.40;1.30;;;;;;;;;;5120406;28;20203;-62
2023/10/17 03:56:18;;;;;;;1.50;1.40;;;;;;;;;;5120337;28;20262;-64
2023/10/17 03:58:53;;;;;;;1.58;1.48;;;;;;;;;;5120586;28;20495;-63
2023/10/17 04:01:23;;;;;;;1.42;1.30;;;;;;;;;;5119752;28;20563;-64
2023/10/17 04:03:53;;;;;;;1.40;1.30;;;;;;;;;;5119921;28;20203;-63
2023/10/17 04:06:34;;;;;;;1.30;1.20;;;;;;;;;;5119534;28;20241;-63
2023/10/17 04:11:58;;;;;;;1.35;1.25;;;;;;;;;;5135854;27;20713;-62
2023/10/17 04:14:33;;;;;;;1.55;1.45;;;;;;;;;;5135422;27;20263;-62
2023/10/17 04:17:02;;;;;;;1.45;1.35;;;;;;;;;;5135638;27;20213;-62
2023/10/17 04:19:32;;;;;;;1.50;1.40;;;;;;;;;;5134796;27;20202;-63
2023/10/17 04:22:07;;;;;;;1.55;1.45;;;;;;;;;;5135269;27;20296;-63
2023/10/17 04:24:35;;;;;;;1.30;1.20;;;;;;;;;;5135301;27;20202;-62
2023/10/17 04:27:19;;;;;;;1.50;1.40;;;;;;;;;;5135022;27;20225;-62
2023/10/17 04:29:50;;;;;;;1.40;1.30;;;;;;;;;;5134594;27;20229;-62
2023/10/17 04:32:19;;;;;;;1.40;1.30;;;;;;;;;;5134124;27;20224;-62
2023/10/17 04:34:47;;;;;;;1.33;1.23;;;;;;;;;;5134606;27;20612;-63
2023/10/17 04:37:16;;;;;;;1.50;1.40;;;;;;;;;;5134929;27;20202;-62
2023/10/17 04:39:49;;;;;;;1.20;1.20;;;;;;;;;;5134179;27;20292;-62
2023/10/17 04:42:25;;;;;;;1.45;1.35;;;;;;;;;;5132702;28;20228;-62
2023/10/17 04:44:52;;;;;;;1.58;1.48;;;;;;;;;;5133523;27;20294;-62
2023/10/17 04:47:29;;;;;;;1.30;1.20;;;;;;;;;;5133532;27;20570;-62
2023/10/17 04:49:55;;;;;;;1.70;1.30;;;;;;;;;;5133314;27;20575;-62
2023/10/17 04:52:29;;;;;;;1.45;1.35;;;;;;;;;;5134106;27;20326;-62
2023/10/17 04:55:01;;;;;;;1.33;1.23;;;;;;;;;;5132850;27;20210;-62
2023/10/17 05:00:25;;;;;;;1.35;1.25;;;;;;;;;;5132440;27;20271;-62
2023/10/17 05:03:03;;;;;;;1.20;1.10;;;;;;;;;;5132752;27;20266;-62
2023/10/17 05:05:40;;;;;;;1.30;1.20;;;;;;;;;;5132707;27;20194;-62
2023/10/17 05:08:21;;;;;;;1.27;1.17;;;;;;;;;;5132365;27;20553;-63
2023/10/17 06:17:40;;;;;;;1.33;1.23;;;;;;;;;;5117083;28;20684;-63
2023/10/17 06:20:12;;;;;;;1.63;1.30;;;;;;;;;;5117850;28;20306;-63
2023/10/17 06:31:34;;;;;;;1.20;1.10;;;;;;;;;;5114035;28;20835;-63
2023/10/17 06:34:01;;;;;;;1.20;1.10;;;;;;;;;;5117039;28;20545;-64
2023/10/17 06:36:29;;;;;;;1.10;1.00;;;;;;;;;;5117563;28;20203;-64
2023/10/17 06:38:57;;;;;;;1.33;1.20;;;;;;;;;;5116775;28;20214;-64
2023/10/17 06:41:38;;;;;;;1.80;1.27;;;;;;;;;;5116984;28;20195;-64
2023/10/17 06:44:05;;;;;;;1.40;1.30;;;;;;;;;;5117375;28;20206;-64
2023/10/17 06:46:40;;;;;;;1.30;1.20;;;;;;;;;;5118046;28;20537;-64
2023/10/17 06:49:09;;;;;;;1.20;1.10;;;;;;;;;;5117563;28;20194;-64
2023/10/17 06:51:36;;;;;;;1.60;1.50;;;;;;;;;;5117371;28;20234;-64
2023/10/17 06:54:07;;;;;;;1.50;1.40;;;;;;;;;;5117637;28;20331;-64
2023/10/17 06:56:41;;;;;;;1.02;1.02;;;;;;;;;;5116896;28;20505;-64
2023/10/17 06:59:22;;;;;;;2.03;1.13;;;;;;;;;;5117155;28;20206;-64
2023/10/17 07:02:06;;;;;;;1.20;1.10;;;;;;;;;;5117108;28;20203;-64
2023/10/17 07:04:37;;;;;;;1.40;1.30;;;;;;;;;;5116759;28;20476;-64
2023/10/17 07:07:05;;;;;;;5.07;1.42;;;;;;;;;;5117469;27;20210;-64
2023/10/17 07:09:38;;;;;;;1.20;1.10;;;;;;;;;;5116924;28;20203;-64
2023/10/17 07:12:13;;;;;;;1.45;1.35;;;;;;;;;;5116021;28;20284;-64
2023/10/17 07:14:42;;;;;;;1.35;1.25;;;;;;;;;;5116960;28;20212;-64
2023/10/17 07:17:25;;;;;;;1.30;1.15;;;;;;;;;;5115894;28;20199;-64
2023/10/17 07:19:58;;;;;;;1.40;1.20;;;;;;;;;;5115765;27;20203;-64
2023/10/17 07:22:35;;;;;;;1.63;1.17;;;;;;;;;;5116915;28;20191;-64
2023/10/17 07:25:03;;;;;;;1.38;1.27;;;;;;;;;;5116261;28;20305;-64
2023/10/17 07:27:35;;;;;;;1.30;1.20;;;;;;;;;;5116388;28;20234;-64
2023/10/17 07:30:13;;;;;;;1.20;1.10;;;;;;;;;;5115978;28;20209;-64
2023/10/17 07:32:48;;;;;;;1.13;1.10;;;;;;;;;;5115985;28;20303;-64
2023/10/17 07:35:23;;;;;;;1.40;1.30;;;;;;;;;;5115398;28;20283;-64
2023/10/17 07:37:55;;;;;;;1.35;1.00;;;;;;;;;;5115349;28;20267;-64
2023/10/17 07:40:31;;;;;;;1.30;1.20;;;;;;;;;;5115977;28;20268;-64
2023/10/17 07:43:00;;;;;;;1.30;1.20;;;;;;;;;;5116487;28;20234;-64
2023/10/17 07:45:37;;;;;;;1.45;1.35;;;;;;;;;;5115637;28;20207;-64
2023/10/17 07:48:19;;;;;;;1.20;1.02;;;;;;;;;;5116534;28;20221;-64
2023/10/17 07:50:47;;;;;;;1.40;1.30;;;;;;;;;;5115140;28;20218;-64
2023/10/17 07:53:19;;;;;;;1.30;1.20;;;;;;;;;;5116448;28;20203;-64
2023/10/17 07:55:48;;;;;;;2.95;1.40;;;;;;;;;;5116036;28;20249;-64
2023/10/17 07:58:35;;;;;;;1.30;1.20;;;;;;;;;;5116078;28;20263;-64
2023/10/17 08:01:04;;;;;;;1.70;1.40;;;;;;;;;;5115709;28;20198;-64
2023/10/17 08:03:31;;;;;;;1.58;1.48;;;;;;;;;;5115372;28;20209;-64
2023/10/17 08:06:05;;;;;;;1.98;1.40;;;;;;;;;;5115698;28;20221;-64
2023/10/17 08:08:34;;;;;;;1.40;1.30;;;;;;;;;;5115511;28;20286;-64
2023/10/17 08:11:04;;;;;;;1.42;1.33;;;;;;;;;;5115872;28;20329;-64
2023/10/17 08:13:32;;;;;;;1.42;1.33;;;;;;;;;;5116545;28;20207;-64
2023/10/17 08:16:06;;;;;;;1.33;1.23;;;;;;;;;;5115738;28;20246;-64
2023/10/17 08:18:39;;;;;;;1.30;1.20;;;;;;;;;;5115180;28;20203;-64
2023/10/17 08:23:54;;;;;;;1.42;1.33;;;;;;;;;;5116070;28;20343;-64
2023/10/17 08:26:28;;;;;;;1.40;1.30;;;;;;;;;;5115253;28;20195;-64
2023/10/17 08:28:56;;;;;;;1.55;1.45;;;;;;;;;;5115430;28;20617;-64
2023/10/17 08:31:24;;;;;;;1.48;1.38;;;;;;;;;;5115272;28;20571;-64
2023/10/17 08:33:57;;;;;;;1.40;1.30;;;;;;;;;;5115426;28;20309;-64
2023/10/17 08:36:28;;;;;;;1.63;1.42;;;;;;;;;;5116349;28;20207;-64
2023/10/17 08:38:59;;;;;;;1.25;1.15;;;;;;;;;;5116114;28;20195;-64
2023/10/17 08:41:26;;;;;;;1.40;1.30;;;;;;;;;;5116022;28;20203;-64
2023/10/17 08:43:55;;;;;;;1.77;1.67;;;;;;;;;;5115757;28;20260;-64
2023/10/17 08:46:22;;;;;;;1.40;1.30;;;;;;;;;;5115672;28;20721;-64
2023/10/17 08:48:56;;;;;;;1.45;1.35;;;;;;;;;;5115877;28;20214;-64
2023/10/17 08:51:25;;;;;;;1.50;1.40;;;;;;;;;;5115163;28;20237;-64
2023/10/17 08:53:54;;;;;;;1.23;1.13;;;;;;;;;;5115024;28;20249;-64
2023/10/17 08:56:23;;;;;;;1.45;1.35;;;;;;;;;;5115148;28;20202;-64
2023/10/17 08:59:03;;;;;;;1.48;1.33;;;;;;;;;;5119498;28;20214;-64
2023/10/17 09:01:30;;;;;;;1.63;1.52;;;;;;;;;;5119332;28;20195;-64
2023/10/17 09:04:03;;;;;;;1.40;1.30;;;;;;;;;;5118910;28;20203;-64
2023/10/17 09:06:32;;;;;;;1.35;1.25;;;;;;;;;;5118938;28;20199;-64
2023/10/17 09:12:03;;;;;;;1.60;1.50;;;;;;;;;;5118109;28;20779;-64
2023/10/17 09:14:35;;;;;;;1.42;1.33;;;;;;;;;;5118105;27;20248;-64
2023/10/17 09:17:10;;;;;;;1.40;1.30;;;;;;;;;;5118054;28;20567;-64
2023/10/17 09:19:46;;;;;;;1.45;1.35;;;;;;;;;;5118904;28;20249;-63
2023/10/17 09:22:14;;;;;;;1.23;1.15;;;;;;;;;;5119373;28;20202;-63
2023/10/17 09:24:45;;;;;;;1.40;1.30;;;;;;;;;;5118981;28;20462;-63
2023/10/17 09:27:14;;;;;;;1.30;1.20;;;;;;;;;;5117814;28;20575;-63
2023/10/17 09:29:46;;;;;;;1.83;1.30;;;;;;;;;;5117977;28;20218;-63
2023/10/17 09:32:13;;;;;;;1.42;1.33;;;;;;;;;;5117125;28;20222;-63
2023/10/17 09:34:42;;;;;;;1.67;1.42;;;;;;;;;;5116970;28;20203;-63
2023/10/17 09:37:13;;;;;;;1.27;1.17;;;;;;;;;;5118339;28;20494;-63
2023/10/17 09:39:47;;;;;;;2.05;1.50;;;;;;;;;;5117490;28;20267;-63
2023/10/17 09:42:16;;;;;;;1.40;1.30;;;;;;;;;;5117986;28;20206;-63
2023/10/17 09:44:44;;;;;;;1.63;1.50;;;;;;;;;;5117667;28;20207;-63
2023/10/17 09:47:11;;;;;;;1.50;1.40;;;;;;;;;;5117345;28;20203;-64
2023/10/17 09:49:45;;;;;;;1.77;1.40;;;;;;;;;;5117247;28;20207;-64
2023/10/17 09:52:14;;;;;;;1.50;1.30;;;;;;;;;;5116914;28;20233;-64
2023/10/17 09:54:43;;;;;;;1.60;1.50;;;;;;;;;;5117339;28;20207;-64
2023/10/17 09:57:14;;;;;;;1.60;1.50;;;;;;;;;;5117280;27;20205;-64
2023/10/17 09:59:44;;;;;;;1.77;1.52;;;;;;;;;;5117767;28;20651;-63
2023/10/17 10:02:13;;;;;;;1.50;1.40;;;;;;;;;;5118150;28;20207;-64
2023/10/17 10:04:40;;;;;;;2.35;1.48;;;;;;;;;;5117613;28;20194;-63
2023/10/17 10:07:21;;;;;;;1.67;1.58;;;;;;;;;;5117250;28;20329;-64
2023/10/17 10:09:48;;;;;;;1.80;1.70;;;;;;;;;;5117340;28;20581;-63
2023/10/17 10:12:17;;;;;;;2.55;1.48;;;;;;;;;;5116526;28;20234;-63
2023/10/17 10:14:49;;;;;;;1.60;1.50;;;;;;;;;;5117110;28;20207;-63
2023/10/17 10:17:17;;;;;;;1.70;1.60;;;;;;;;;;5117413;28;20655;-63
2023/10/17 10:20:01;;;;;;;1.70;1.60;;;;;;;;;;5117137;28;20264;-64
2023/10/17 10:22:45;;;;;;;1.88;1.40;;;;;;;;;;5116797;28;20213;-63
2023/10/17 10:25:12;;;;;;;1.80;1.70;;;;;;;;;;5115236;27;21007;-63
2023/10/17 10:27:40;;;;;;;1.60;1.50;;;;;;;;;;5116843;28;20210;-63
2023/10/17 10:30:25;;;;;;;1.85;1.67;;;;;;;;;;5116855;28;20199;-64
2023/10/17 10:32:54;;;;;;;1.70;1.60;;;;;;;;;;5116722;28;20614;-64
2023/10/17 10:35:22;;;;;;;1.70;1.60;;;;;;;;;;5115897;28;20214;-64
2023/10/17 10:37:52;;;;;;;1.42;1.33;;;;;;;;;;5115254;28;20218;-64
2023/10/17 10:40:24;;;;;;;1.63;1.52;;;;;;;;;;5115951;28;20291;-63
2023/10/17 10:42:51;;;;;;;1.88;1.67;;;;;;;;;;5115569;28;20199;-63
2023/10/17 10:45:26;;;;;;;1.70;1.60;;;;;;;;;;5116163;28;20210;-63
2023/10/17 10:47:58;;;;;;;1.90;1.67;;;;;;;;;;5115376;28;20209;-63
2023/10/17 10:50:29;;;;;;;1.67;1.58;;;;;;;;;;5116043;28;20203;-63
2023/10/17 10:52:58;;;;;;;1.98;1.67;;;;;;;;;;5115892;28;20639;-63
2023/10/17 10:55:26;;;;;;;2.53;1.73;;;;;;;;;;5116601;28;20290;-63
2023/10/17 10:57:53;;;;;;;2.30;1.70;;;;;;;;;;5116174;28;20574;-63
2023/10/17 11:00:21;;;;;;;2.00;1.63;;;;;;;;;;5115712;28;20321;-64
2023/10/17 11:02:49;;;;;;;1.60;1.50;;;;;;;;;;5115173;28;20199;-63
2023/10/17 11:05:18;;;;;;;2.08;1.88;;;;;;;;;;5116205;28;20203;-63
2023/10/17 11:07:45;;;;;;;1.60;1.48;;;;;;;;;;5115775;28;20203;-63
2023/10/17 11:10:13;;;;;;;1.77;1.67;;;;;;;;;;5115664;28;20226;-63
2023/10/17 11:12:42;;;;;;;1.92;1.83;;;;;;;;;;5114796;28;20227;-63
2023/10/17 11:15:11;;;;;;;1.85;1.75;;;;;;;;;;5115062;28;20675;-63
2023/10/17 11:17:39;;;;;;;1.70;1.60;;;;;;;;;;5114506;28;20195;-64
2023/10/17 11:20:14;;;;;;;2.63;1.70;;;;;;;;;;5114353;28;20202;-63
2023/10/17 11:22:43;;;;;;;1.77;1.67;;;;;;;;;;5115093;28;20229;-63
2023/10/17 11:25:15;;;;;;;1.70;1.60;;;;;;;;;;5115747;28;20217;-63
2023/10/17 11:27:53;;;;;;;1.50;1.40;;;;;;;;;;5115459;28;20203;-64
2023/10/17 11:30:20;;;;;;;2.10;1.90;;;;;;;;;;5114967;27;20289;-63
2023/10/17 11:32:49;;;;;;;2.08;1.88;;;;;;;;;;5115105;27;20223;-63
2023/10/17 11:35:29;;;;;;;1.88;1.70;;;;;;;;;;5114987;28;20290;-64
2023/10/17 11:37:58;;;;;;;2.08;1.50;;;;;;;;;;5115446;28;20205;-63
2023/10/17 11:40:32;;;;;;;1.50;1.40;;;;;;;;;;5116003;28;20199;-63
2023/10/17 11:43:00;;;;;;;2.13;1.67;;;;;;;;;;5114880;28;20194;-63
2023/10/17 11:45:36;;;;;;;1.70;1.60;;;;;;;;;;5115219;28;20214;-63
2023/10/17 11:48:14;;;;;;;2.08;1.40;;;;;;;;;;5112805;28;20202;-64
2023/10/17 11:50:42;;;;;;;1.77;1.67;;;;;;;;;;5113216;28;20210;-64
2023/10/17 11:53:12;;;;;;;1.55;1.45;;;;;;;;;;5114498;28;20642;-63
2023/10/17 11:55:45;;;;;;;1.60;1.50;;;;;;;;;;5115154;28;20202;-63
2023/10/17 11:58:12;;;;;;;1.88;1.70;;;;;;;;;;5114372;28;20203;-63
2023/10/17 12:00:40;;;;;;;1.65;1.55;;;;;;;;;;5115026;28;20224;-63
2023/10/17 12:03:07;;;;;;;1.60;1.50;;;;;;;;;;5114218;28;20206;-63
2023/10/17 12:05:38;;;;;;;1.70;1.60;;;;;;;;;;5113804;28;20740;-64
2023/10/17 12:08:06;;;;;;;1.42;1.33;;;;;;;;;;5114143;28;20203;-64
2023/10/17 12:10:42;;;;;;;1.60;1.50;;;;;;;;;;5123508;28;20234;-63
2023/10/17 12:13:13;;;;;;;1.77;1.60;;;;;;;;;;5134635;28;20261;-63
2023/10/17 12:15:41;;;;;;;1.60;1.50;;;;;;;;;;5135110;28;20208;-63
2023/10/17 12:18:08;;;;;;;2.20;1.63;;;;;;;;;;5134970;28;20213;-63
2023/10/17 12:20:40;;;;;;;1.73;1.63;;;;;;;;;;5134017;28;20203;-63
2023/10/17 12:23:09;;;;;;;1.60;1.50;;;;;;;;;;5135131;28;20713;-63
2023/10/17 12:25:42;;;;;;;1.50;1.40;;;;;;;;;;5134610;28;20209;-64
2023/10/17 12:28:10;;;;;;;1.70;1.60;;;;;;;;;;5134081;28;20202;-64
2023/10/17 12:30:38;;;;;;;1.75;1.65;;;;;;;;;;5134614;27;20206;-64
2023/10/17 12:33:05;;;;;;;1.58;1.48;;;;;;;;;;5136409;27;20813;-63
2023/10/17 12:35:33;;;;;;;1.65;1.55;;;;;;;;;;5137311;27;20488;-63
2023/10/17 12:38:06;;;;;;;1.60;1.50;;;;;;;;;;5137527;27;20209;-62
2023/10/17 12:40:33;;;;;;;1.70;1.60;;;;;;;;;;5137741;27;20197;-63
2023/10/17 12:43:02;;;;;;;1.50;1.40;;;;;;;;;;5137445;27;20217;-62
2023/10/17 12:45:30;;;;;;;2.25;1.33;;;;;;;;;;5137723;27;20210;-62
2023/10/17 12:47:57;;;;;;;1.77;1.67;;;;;;;;;;5138349;27;20202;-62
2023/10/17 12:50:25;;;;;;;2.17;1.80;;;;;;;;;;5138070;27;20195;-62
2023/10/17 12:52:53;;;;;;;1.60;1.50;;;;;;;;;;5138326;27;20218;-62
2023/10/17 12:55:20;;;;;;;1.60;1.50;;;;;;;;;;5138067;27;20280;-62
2023/10/17 12:57:48;;;;;;;1.55;1.45;;;;;;;;;;5137416;27;20233;-62
2023/10/17 13:00:25;;;;;;;1.85;1.75;;;;;;;;;;5137849;27;20209;-62
2023/10/17 13:02:53;;;;;;;1.60;1.50;;;;;;;;;;5138175;27;20505;-62
2023/10/17 13:05:20;;;;;;;1.42;1.33;;;;;;;;;;5137984;27;20230;-62
2023/10/17 13:07:48;;;;;;;1.70;1.60;;;;;;;;;;5137911;27;20231;-63
2023/10/17 13:10:15;;;;;;;2.13;1.60;;;;;;;;;;5137055;27;20230;-63
2023/10/17 13:12:43;;;;;;;2.38;1.80;;;;;;;;;;5136842;27;20647;-63
2023/10/17 13:15:14;;;;;;;2.30;1.55;;;;;;;;;;5137199;27;20202;-63
2023/10/17 13:17:43;;;;;;;1.98;1.65;;;;;;;;;;5138279;27;20198;-63
2023/10/17 13:20:13;;;;;;;2.35;1.80;;;;;;;;;;5137648;27;20202;-63
2023/10/17 13:22:46;;;;;;;2.03;1.80;;;;;;;;;;5136902;27;20600;-62
2023/10/17 13:25:14;;;;;;;3.47;1.85;;;;;;;;;;5137975;27;20209;-62
2023/10/17 13:27:41;;;;;;;3.22;2.00;;;;;;;;;;5137358;27;20205;-62
2023/10/17 13:30:09;;;;;;;2.30;1.77;;;;;;;;;;5137293;27;20234;-63
2023/10/17 13:32:36;;;;;;;2.30;2.10;;;;;;;;;;5136676;27;20219;-63
2023/10/17 13:35:06;;;;;;;4.15;2.65;;;;;;;;;;5138128;27;20202;-62
2023/10/17 13:37:34;;;;;;;2.75;2.30;;;;;;;;;;5137876;27;20649;-62
2023/10/17 13:40:02;;;;;;;3.45;2.20;;;;;;;;;;5137044;27;20305;-63
2023/10/17 13:42:30;;;;;;;3.55;2.75;;;;;;;;;;5136949;27;20198;-62
2023/10/17 13:44:59;;;;;;;3.38;2.45;;;;;;;;;;5138034;27;20206;-62
2023/10/17 13:47:26;;;;;;;3.20;2.58;;;;;;;;;;5137338;27;20233;-62
2023/10/17 13:49:54;;;;;;;3.28;2.45;;;;;;;;;;5137408;27;20271;-62
2023/10/17 13:52:24;;;;;;;3.47;2.90;;;;;;;;;;5136909;27;20703;-63
2023/10/17 13:54:52;;;;;;;4.82;2.53;;;;;;;;;;5136182;27;20703;-63
2023/10/17 13:57:20;;;;;;;4.72;2.70;;;;;;;;;;5136397;27;20202;-63
2023/10/17 13:59:53;;;;;;;4.07;2.45;;;;;;;;;;5136453;27;20206;-62
2023/10/17 14:02:20;;;;;;;4.90;2.63;;;;;;;;;;5136563;27;20217;-62
2023/10/17 14:04:47;;;;;;;5.15;2.70;;;;;;;;;;5136839;27;20209;-63
2023/10/17 14:07:15;;;;;;;4.45;2.80;;;;;;;;;;5137335;27;20202;-63
2023/10/17 14:09:44;;;;;;;4.15;2.75;;;;;;;;;;5136956;27;20238;-63
2023/10/17 14:12:11;;;;;;;5.22;2.70;;;;;;;;;;5135585;27;20202;-63
2023/10/17 14:14:38;;;;;;;5.55;3.28;;;;;;;;;;5136490;27;20745;-62
2023/10/17 14:17:06;;;;;;;5.57;3.47;;;;;;;;;;5136393;27;20202;-62
2023/10/17 14:19:44;;;;;;;4.20;3.40;;;;;;;;;;5135715;27;20213;-63
2023/10/17 14:22:33;;;;;;;6.72;3.30;;;;;;;;;;5136098;27;20289;-63
2023/10/17 14:25:04;;;;;;;6.97;3.88;;;;;;;;;;5136904;27;20227;-63
2023/10/17 14:27:31;;;;;;;5.45;3.67;;;;;;;;;;5135852;27;20194;-63
2023/10/17 14:30:00;;;;;;;5.65;3.88;;;;;;;;;;5136958;27;20210;-63
2023/10/17 14:32:28;;;;;;;5.57;4.03;;;;;;;;;;5136576;27;20562;-63
2023/10/17 14:34:56;;;;;;;6.10;4.03;;;;;;;;;;5136681;27;20214;-63
2023/10/17 14:37:24;;;;;;;5.03;3.55;;;;;;;;;;5135244;27;20256;-63
2023/10/17 14:39:54;;;;;;;6.10;3.90;;;;;;;;;;5135969;27;20202;-63
2023/10/17 14:42:22;;;;;;;5.25;3.70;;;;;;;;;;5135673;27;20292;-63
2023/10/17 14:44:52;;;;;;;5.82;3.83;;;;;;;;;;5135926;27;20328;-63
2023/10/17 14:47:19;;;;;;;7.15;4.00;;;;;;;;;;5135854;27;20293;-63
2023/10/17 14:49:47;;;;;;;5.50;3.80;;;;;;;;;;5135392;27;20221;-63
2023/10/17 14:52:15;;;;;;;5.38;3.58;;;;;;;;;;5136319;27;20194;-63
2023/10/17 14:54:43;;;;;;;5.95;3.72;;;;;;;;;;5134737;27;20230;-62
2023/10/17 14:57:10;;;;;;;6.53;3.60;;;;;;;;;;5136258;27;20313;-62
2023/10/17 14:59:39;;;;;;;4.53;3.45;;;;;;;;;;5136186;27;20293;-62
2023/10/17 15:02:07;;;;;;;5.35;3.35;;;;;;;;;;5135902;27;20598;-62
2023/10/17 15:04:37;;;;;;;4.63;3.40;;;;;;;;;;5135532;27;20209;-62
2023/10/17 15:07:05;;;;;;;4.07;3.22;;;;;;;;;;5136258;27;20601;-63
2023/10/17 15:09:34;;;;;;;5.05;3.50;;;;;;;;;;5135695;27;20206;-63
2023/10/17 15:12:04;;;;;;;4.00;3.58;;;;;;;;;;5135750;27;20241;-63
2023/10/17 15:14:31;;;;;;;4.38;3.38;;;;;;;;;;5135390;27;20222;-63
2023/10/17 15:17:00;;;;;;;5.55;3.85;;;;;;;;;;5135868;27;20266;-63
2023/10/17 15:19:27;;;;;;;5.18;3.08;;;;;;;;;;5134880;27;20224;-63
2023/10/17 15:21:55;;;;;;;6.40;3.60;;;;;;;;;;5135349;27;20194;-63
2023/10/17 15:24:23;;;;;;;4.32;3.25;;;;;;;;;;5135942;27;20475;-63
2023/10/17 15:26:51;;;;;;;4.18;3.00;;;;;;;;;;5135659;27;20198;-63
2023/10/17 15:29:18;;;;;;;4.32;3.25;;;;;;;;;;5136177;27;20660;-62
2023/10/17 15:31:49;;;;;;;3.63;3.17;;;;;;;;;;5136114;27;20201;-63
2023/10/17 15:34:18;;;;;;;5.05;3.60;;;;;;;;;;5134864;27;20229;-63
2023/10/17 15:36:47;;;;;;;3.72;3.08;;;;;;;;;;5135445;27;20545;-63
2023/10/17 15:39:15;;;;;;;3.80;2.90;;;;;;;;;;5136029;27;20203;-63
2023/10/17 15:41:42;;;;;;;4.60;3.33;;;;;;;;;;5135305;27;20285;-63
2023/10/17 15:44:10;;;;;;;4.30;3.20;;;;;;;;;;5133925;27;20207;-62
2023/10/17 15:46:38;;;;;;;4.60;3.22;;;;;;;;;;5135387;27;20656;-63
2023/10/17 15:49:05;;;;;;;3.25;2.65;;;;;;;;;;5135085;27;20206;-63
2023/10/17 15:51:34;;;;;;;3.35;2.90;;;;;;;;;;5134569;27;20217;-63
2023/10/17 15:54:02;;;;;;;4.22;3.30;;;;;;;;;;5134751;27;20218;-63
2023/10/17 15:56:29;;;;;;;3.58;2.70;;;;;;;;;;5135116;27;20202;-62
2023/10/17 15:58:56;;;;;;;3.05;2.75;;;;;;;;;;5135475;27;20202;-63
2023/10/17 16:01:24;;;;;;;3.25;2.83;;;;;;;;;;5135262;27;20281;-64
2023/10/17 16:03:51;;;;;;;3.42;2.90;;;;;;;;;;5134246;27;20289;-63
2023/10/17 16:06:19;;;;;;;4.78;3.00;;;;;;;;;;5133727;27;20210;-63
2023/10/17 16:08:49;;;;;;;3.05;2.63;;;;;;;;;;5135236;27;20222;-63
2023/10/17 16:11:17;;;;;;;3.35;2.50;;;;;;;;;;5133553;27;20238;-63
2023/10/17 16:13:45;;;;;;;3.22;2.35;;;;;;;;;;5134696;27;20237;-63
2023/10/17 16:16:13;;;;;;;3.88;2.67;;;;;;;;;;5135537;27;20545;-63
2023/10/17 16:18:40;;;;;;;3.70;2.70;;;;;;;;;;5135293;27;20213;-63
2023/10/17 16:21:09;;;;;;;2.95;2.47;;;;;;;;;;5134438;28;20453;-63
2023/10/17 16:23:36;;;;;;;3.15;2.40;;;;;;;;;;5135407;27;20262;-63
2023/10/17 16:26:05;;;;;;;3.15;2.25;;;;;;;;;;5134040;27;20209;-63
2023/10/17 16:28:33;;;;;;;4.05;2.60;;;;;;;;;;5135588;27;20209;-63
2023/10/17 16:31:00;;;;;;;3.42;2.53;;;;;;;;;;5135618;27;20550;-63
2023/10/17 16:33:29;;;;;;;3.22;2.40;;;;;;;;;;5134951;27;20248;-63